Time;durP1;ratioP1;P1;durP2;ratioP2;P2;SDS_P1;SDS_P2;PMS_P1;PMS_P2;Temp;Humidity;BMP_temperature;BMP_pressure;BME280_temperature;BME280_humidity;BME280_pressure;Samples;Min_cycle;Max_cycle;Signal;HPM_P1;HPM_P2
2024/03/12 00:01:39;;;;;;;86.40;34.63;;;;;;;11.59;63.48;100979.34;4932436;28;96842;-86
2024/03/12 00:04:09;;;;;;;101.45;34.83;;;;;;;11.61;63.60;100988.06;4949235;28;96936;-86
2024/03/12 00:06:37;;;;;;;102.47;36.72;;;;;;;11.62;63.33;100997.63;4949942;28;97382;-86
2024/03/12 00:09:06;;;;;;;87.85;36.58;;;;;;;11.61;63.27;100998.50;4937192;28;100323;-85
2024/03/12 00:11:32;;;;;;;93.00;32.47;;;;;;;11.59;63.32;100993.25;4950798;28;96915;-90
2024/03/12 00:13:58;;;;;;;98.07;35.00;;;;;;;11.57;63.40;101008.06;4945384;28;97679;-85
2024/03/12 00:16:24;;;;;;;89.32;30.08;;;;;;;11.58;63.38;101009.78;4962582;28;97896;-86
2024/03/12 00:18:53;;;;;;;91.15;31.92;;;;;;;11.59;63.33;101016.78;4947394;28;97555;-86
2024/03/12 00:21:20;;;;;;;91.43;35.90;;;;;;;11.58;63.48;101014.16;4945430;28;96933;-86
2024/03/12 00:23:47;;;;;;;93.90;34.72;;;;;;;11.59;63.45;101022.00;4951327;28;96889;-86
2024/03/12 00:26:17;;;;;;;82.93;31.92;;;;;;;11.59;63.52;101022.00;4932732;28;100089;-86
2024/03/12 00:28:44;;;;;;;93.93;31.63;;;;;;;11.58;63.24;101028.06;4932736;28;99935;-87
2024/03/12 00:31:13;;;;;;;86.50;34.38;;;;;;;11.57;63.39;101035.91;4928161;28;97627;-86
2024/03/12 00:33:39;;;;;;;88.80;32.00;;;;;;;11.54;63.42;101028.91;4942285;28;96886;-86
2024/03/12 00:36:05;;;;;;;92.18;32.72;;;;;;;11.52;63.39;101035.00;4951509;28;97933;-86
2024/03/12 00:38:31;;;;;;;103.57;35.13;;;;;;;11.52;63.52;101038.47;4951575;28;99974;-86
2024/03/12 00:40:57;;;;;;;99.07;35.25;;;;;;;11.53;63.38;101041.94;4969538;28;96665;-90
2024/03/12 00:43:22;;;;;;;87.35;31.42;;;;;;;11.53;63.44;101045.47;4934583;28;97650;-89
2024/03/12 00:45:48;;;;;;;89.47;36.10;;;;;;;11.51;63.50;101041.91;4952511;28;100694;-90
2024/03/12 00:48:15;;;;;;;108.75;33.33;;;;;;;11.51;63.30;101047.16;4932752;28;100407;-89
2024/03/12 00:50:45;;;;;;;93.85;34.70;;;;;;;11.51;63.24;101048.88;4949059;28;96880;-89
2024/03/12 00:53:11;;;;;;;;;;;;;;;11.49;63.48;101053.22;4938422;28;96886;-89
2024/03/12 00:55:37;;;;;;;88.80;32.03;;;;;;;11.53;63.43;101058.53;4952569;28;99413;-89
2024/03/12 00:58:07;;;;;;;88.70;31.35;;;;;;;11.53;63.54;101060.22;4935607;28;99840;-89
2024/03/12 01:00:36;;;;;;;83.13;33.35;;;;;;;11.52;63.68;101061.97;4935166;28;96844;-88
2024/03/12 01:03:05;;;;;;;87.35;30.95;;;;;;;11.53;63.79;101062.84;4949818;28;96986;-91
2024/03/12 01:05:35;;;;;;;89.30;32.80;;;;;;;11.54;63.59;101062.88;4932296;28;100888;-90
2024/03/12 01:08:03;;;;;;;86.60;33.33;;;;;;;11.55;63.74;101064.63;4950798;28;97660;-90
2024/03/12 01:10:33;;;;;;;91.22;34.28;;;;;;;11.55;63.76;101061.13;4938788;28;97564;-91
2024/03/12 01:13:01;;;;;;;89.78;30.80;;;;;;;11.54;63.43;101057.66;4933749;28;97190;-90
2024/03/12 01:15:28;;;;;;;87.35;32.88;;;;;;;11.52;63.64;101058.50;4970167;28;97679;-89
2024/03/12 01:17:55;;;;;;;85.32;31.83;;;;;;;11.51;63.54;101060.22;4950223;28;100140;-90
2024/03/12 01:20:24;;;;;;;96.70;33.13;;;;;;;11.49;63.61;101059.31;4949490;28;96719;-90
2024/03/12 01:22:51;;;;;;;81.57;32.47;;;;;;;11.51;63.65;101056.72;4935192;28;96998;-89
2024/03/12 01:25:17;;;;;;;107.43;34.37;;;;;;;11.49;63.50;101061.06;4934558;28;100290;-89
2024/03/12 01:27:43;;;;;;;83.00;31.15;;;;;;;11.47;63.66;101066.25;4951203;28;98754;-89
2024/03/12 01:30:16;;;;;;;80.88;32.13;;;;;;;11.45;63.72;101067.97;4948785;28;96769;-88
2024/03/12 01:32:46;;;;;;;85.88;32.47;;;;;;;11.42;63.65;101066.19;4951526;28;96840;-87
2024/03/12 01:35:14;;;;;;;79.18;31.58;;;;;;;11.40;63.97;101067.91;4927222;28;99317;-88
2024/03/12 01:37:43;;;;;;;84.53;29.33;;;;;;;11.41;63.87;101069.69;4948165;28;99330;-85
2024/03/12 01:40:21;;;;;;;95.95;32.78;;;;;;;11.42;63.94;101078.38;4945128;28;97372;-85
2024/03/12 01:42:53;;;;;;;81.75;30.88;;;;;;;11.42;63.88;101076.63;4965189;28;96886;-85
2024/03/12 01:45:22;;;;;;;112.15;30.75;;;;;;;11.42;63.84;101078.38;4929375;28;100449;-85
2024/03/12 01:47:52;;;;;;;85.57;31.90;;;;;;;11.40;63.95;101072.28;4952373;28;100385;-86
2024/03/12 01:50:19;;;;;;;82.05;27.58;;;;;;;11.42;64.00;101078.38;4951807;28;96771;-86
2024/03/12 01:52:47;;;;;;;77.03;30.20;;;;;;;11.42;63.87;101079.25;4941012;28;97044;-85
2024/03/12 01:55:18;;;;;;;80.35;31.33;;;;;;;11.42;63.81;101078.38;4947744;28;100819;-86
2024/03/12 01:57:48;;;;;;;83.43;27.08;;;;;;;11.43;64.05;101083.63;4934127;28;99617;-85
2024/03/12 02:00:15;;;;;;;81.55;27.27;;;;;;;11.43;64.09;101078.41;4951745;28;96801;-85
2024/03/12 02:02:47;;;;;;;73.15;27.40;;;;;;;11.42;63.95;101081.88;4947984;28;96698;-86
2024/03/12 02:05:13;;;;;;;92.60;30.50;;;;;;;11.43;64.07;101074.94;4944852;28;100906;-86
2024/03/12 02:07:43;;;;;;;81.28;27.83;;;;;;;11.42;64.12;101076.63;4933209;28;100559;-90
2024/03/12 02:10:09;;;;;;;82.43;28.63;;;;;;;11.42;64.09;101079.25;4935568;28;97235;-89
2024/03/12 02:12:35;;;;;;;84.85;29.90;;;;;;;11.43;64.04;101094.09;4937970;28;96970;-90
2024/03/12 02:15:05;;;;;;;77.47;27.67;;;;;;;11.42;64.17;101089.69;4935112;28;100488;-90
2024/03/12 02:17:30;;;;;;;85.03;29.08;;;;;;;11.43;64.03;101090.59;4947758;28;100531;-89
2024/03/12 02:19:57;;;;;;;76.22;26.92;;;;;;;11.45;64.10;101090.63;4954027;28;96763;-89
2024/03/12 02:22:23;;;;;;;70.70;29.08;;;;;;;11.44;64.05;101092.34;4938018;28;97241;-90
2024/03/12 02:24:50;;;;;;;86.28;30.27;;;;;;;11.44;64.08;101092.34;4935518;28;100529;-89
2024/03/12 02:27:17;;;;;;;76.63;28.15;;;;;;;11.44;64.21;101094.94;4939274;28;100114;-90
2024/03/12 02:29:44;;;;;;;75.20;25.02;;;;;;;11.43;64.17;101094.09;4949329;28;96829;-90
2024/03/12 02:32:10;;;;;;;72.22;26.05;;;;;;;11.45;64.13;101101.06;4934700;28;96980;-90
2024/03/12 02:34:36;;;;;;;71.68;27.80;;;;;;;11.44;64.12;101108.00;4951591;28;97498;-91
2024/03/12 02:37:02;;;;;;;62.30;26.63;;;;;;;11.43;64.11;101106.28;4934111;28;100129;-91
2024/03/12 02:39:28;;;;;;;66.93;24.42;;;;;;;11.42;64.02;101109.72;4952203;28;96769;-88
2024/03/12 02:41:53;;;;;;;65.35;24.70;;;;;;;11.40;64.11;101108.84;4942731;28;96718;-90
2024/03/12 02:44:21;;;;;;;88.93;28.00;;;;;;;11.40;64.03;101111.44;4951772;28;100661;-90
2024/03/12 02:46:50;;;;;;;66.22;23.88;;;;;;;11.39;64.06;101114.91;4934661;28;99859;-90
2024/03/12 02:49:17;;;;;;;73.55;26.45;;;;;;;11.39;64.24;101120.13;4935058;28;96894;-90
2024/03/12 02:51:45;;;;;;;72.97;25.90;;;;;;;11.40;64.14;101121.91;4947062;28;96898;-86
2024/03/12 02:54:14;;;;;;;79.35;25.25;;;;;;;11.41;64.14;101121.91;4936915;28;100018;-90
2024/03/12 02:56:40;;;;;;;71.32;25.33;;;;;;;11.40;63.98;101120.16;4939703;28;100597;-90
2024/03/12 02:59:08;;;;;;;64.28;23.90;;;;;;;11.41;64.13;101134.09;4947549;28;96864;-86
2024/03/12 03:01:35;;;;;;;72.50;25.45;;;;;;;11.39;64.25;101125.34;4937283;28;96804;-86
2024/03/12 03:04:02;;;;;;;59.58;22.73;;;;;;;11.39;64.10;101127.97;4932598;28;100920;-91
2024/03/12 03:06:28;;;;;;;68.72;22.92;;;;;;;11.36;64.20;101126.19;4958762;28;96777;-91
2024/03/12 03:08:53;;;;;;;62.55;24.58;;;;;;;11.36;64.01;101122.72;4956985;28;96834;-91
2024/03/12 03:11:19;;;;;;;64.70;22.65;;;;;;;11.35;64.04;101124.44;4971987;28;96799;-91
2024/03/12 03:13:45;;;;;;;73.50;25.83;;;;;;;11.32;64.13;101129.63;4936152;28;100244;-91
2024/03/12 03:16:10;;;;;;;75.35;25.63;;;;;;;11.31;64.15;101127.88;4936651;28;98099;-88
2024/03/12 03:18:37;;;;;;;74.38;24.48;;;;;;;11.31;64.06;101138.31;4953431;28;96869;-90
2024/03/12 03:21:03;;;;;;;87.50;27.10;;;;;;;11.30;63.91;101135.69;4947821;28;96784;-86
2024/03/12 03:23:28;;;;;;;88.60;25.38;;;;;;;11.27;64.16;101128.69;4943169;28;100076;-86
2024/03/12 03:25:54;;;;;;;78.20;27.98;;;;;;;11.26;64.23;101142.59;4935736;28;100861;-86
2024/03/12 03:28:19;;;;;;;86.78;27.85;;;;;;;11.26;64.18;101141.72;4950111;28;96920;-85
2024/03/12 03:30:45;;;;;;;79.88;28.10;;;;;;;11.24;64.15;101139.94;4970066;28;96955;-85
2024/03/12 03:33:11;;;;;;;82.43;28.67;;;;;;;11.24;64.20;101146.91;4928796;28;99873;-85
2024/03/12 03:35:37;;;;;;;89.95;25.70;;;;;;;11.24;64.31;101145.16;4960760;28;97468;-85
2024/03/12 03:38:05;;;;;;;99.60;26.75;;;;;;;11.27;64.22;101148.72;4928353;28;96949;-84
2024/03/12 03:40:32;;;;;;;80.65;26.52;;;;;;;11.26;64.28;101146.94;4940282;28;97271;-89
2024/03/12 03:42:57;;;;;;;77.15;27.20;;;;;;;11.25;64.33;101148.69;4956699;28;97698;-88
2024/03/12 03:45:24;;;;;;;67.65;23.60;;;;;;;11.23;64.20;101145.19;4926218;28;100464;-90
2024/03/12 03:47:50;;;;;;;76.15;25.95;;;;;;;11.22;64.25;101162.56;4940345;28;96855;-89
2024/03/12 03:50:16;;;;;;;76.03;26.45;;;;;;;11.23;64.24;101150.41;4950836;28;96843;-89
2024/03/12 03:52:43;;;;;;;69.82;25.30;;;;;;;11.23;64.33;101153.00;4937265;28;100970;-89
2024/03/12 03:55:09;;;;;;;67.22;24.08;;;;;;;11.23;64.44;101160.84;4967581;28;97826;-90
2024/03/12 03:57:36;;;;;;;72.32;24.27;;;;;;;11.21;64.40;101163.44;4951501;28;97711;-89
2024/03/12 04:00:12;;;;;;;63.97;23.65;;;;;;;11.21;64.03;101168.66;4946448;28;96894;-89
2024/03/12 04:02:43;;;;;;;;;;;;;;;11.17;64.20;101172.03;4943901;28;99895;-86
2024/03/12 04:05:09;;;;;;;61.67;20.90;;;;;;;11.20;64.10;101171.22;4934564;28;100159;-86
2024/03/12 04:07:34;;;;;;;80.10;22.65;;;;;;;11.20;64.32;101177.31;4934025;28;96984;-85
2024/03/12 04:10:00;;;;;;;61.33;23.30;;;;;;;11.20;64.39;101177.31;4929881;28;96859;-86
2024/03/12 04:12:26;;;;;;;64.63;21.65;;;;;;;11.22;64.26;101193.88;4946981;28;100443;-85
2024/03/12 04:14:51;;;;;;;60.42;23.30;;;;;;;11.23;64.49;101189.56;4946801;28;100209;-85
2024/03/12 04:17:18;;;;;;;66.35;22.77;;;;;;;11.23;64.45;101192.19;4933459;28;96723;-85
2024/03/12 04:19:47;;;;;;;91.35;21.95;;;;;;;11.26;64.61;101200.03;4950507;28;97047;-84
2024/03/12 04:22:16;;;;;;;60.50;22.50;;;;;;;11.30;64.57;101200.97;4952660;28;97952;-85
2024/03/12 04:24:43;;;;;;;67.72;21.35;;;;;;;11.30;64.21;101199.25;4940791;28;100495;-86
2024/03/12 04:27:14;;;;;;;91.45;25.17;;;;;;;11.28;64.26;101207.91;4950603;28;96942;-84
2024/03/12 04:29:43;;;;;;;68.63;21.05;;;;;;;11.26;64.29;101213.09;4950564;28;96828;-85
2024/03/12 04:32:09;;;;;;;68.00;21.02;;;;;;;11.23;63.91;101216.53;4939324;28;100506;-89
2024/03/12 04:34:37;;;;;;;85.60;23.70;;;;;;;11.21;64.15;101217.34;4948536;28;99764;-89
2024/03/12 04:37:07;;;;;;;73.28;21.08;;;;;;;11.19;64.29;101222.59;4932861;28;96737;-90
2024/03/12 04:39:32;;;;;;;68.38;21.88;;;;;;;11.21;64.25;101225.19;4967307;28;96846;-90
2024/03/12 04:42:05;;;;;;;66.05;21.92;;;;;;;11.19;64.26;101227.81;4949926;28;99261;-90
2024/03/12 04:44:40;;;;;;;66.95;20.95;;;;;;;11.16;64.04;101226.88;4964006;28;97382;-87
2024/03/12 04:47:05;;;;;;;72.88;20.95;;;;;;;11.14;64.27;101226.84;4964531;28;96802;-86
2024/03/12 04:49:31;;;;;;;58.40;21.35;;;;;;;11.13;64.29;101229.44;4948952;28;96726;-85
2024/03/12 04:51:57;;;;;;;63.75;20.67;;;;;;;11.11;63.98;101228.53;4945065;28;97632;-89
2024/03/12 04:54:22;;;;;;;62.17;22.20;;;;;;;11.09;64.34;101236.34;4928960;28;100564;-90
2024/03/12 04:56:50;;;;;;;62.42;19.25;;;;;;;11.08;64.21;101231.09;4964805;28;96683;-90
2024/03/12 04:59:16;;;;;;;60.55;20.67;;;;;;;11.09;64.20;101233.72;4937540;28;97116;-90
2024/03/12 05:01:45;;;;;;;67.82;18.73;;;;;;;11.10;64.21;101231.97;4928280;28;100431;-90
2024/03/12 05:04:12;;;;;;;54.85;19.52;;;;;;;11.09;64.08;101236.34;4947514;28;97337;-90
2024/03/12 05:06:38;;;;;;;54.00;19.08;;;;;;;11.08;64.22;101245.00;4929381;28;96903;-91
2024/03/12 05:09:05;;;;;;;60.45;19.95;;;;;;;11.08;64.33;101247.63;4932824;28;96824;-89
2024/03/12 05:11:32;;;;;;;59.63;21.50;;;;;;;11.07;64.34;101256.31;4935531;28;100215;-90
2024/03/12 05:13:58;;;;;;;66.78;19.45;;;;;;;11.07;64.25;101248.50;4930329;28;99105;-90
2024/03/12 05:16:25;;;;;;;62.35;20.77;;;;;;;11.08;64.40;101258.06;4947059;28;96973;-86
2024/03/12 05:18:50;;;;;;;55.75;19.77;;;;;;;11.10;64.27;101255.47;4957481;28;96822;-86
2024/03/12 05:21:16;;;;;;;65.70;19.80;;;;;;;11.08;64.33;101259.81;4929034;28;100594;-92
2024/03/12 05:23:42;;;;;;;53.72;18.92;;;;;;;11.08;64.21;101265.88;4950587;28;97560;-86
2024/03/12 05:26:08;;;;;;;63.75;21.17;;;;;;;11.09;64.40;101269.38;4924934;28;96919;-86
2024/03/12 05:28:35;;;;;;;57.28;20.50;;;;;;;11.09;64.31;101271.97;4958748;28;96981;-86
2024/03/12 05:31:02;;;;;;;59.95;19.58;;;;;;;11.11;64.34;101281.63;4946067;28;98020;-87
2024/03/12 05:33:38;;;;;;;57.33;19.27;;;;;;;11.11;64.19;101280.75;4936091;28;99270;-87
2024/03/12 05:36:09;;;;;;;60.38;20.50;;;;;;;11.10;64.47;101290.28;4952704;28;96926;-86
2024/03/12 05:38:44;;;;;;;70.25;21.95;;;;;;;11.08;64.22;101289.38;4946742;28;96956;-86
2024/03/12 05:49:06;;;;;;;65.45;19.65;;;;;;;11.05;64.31;101289.31;4969579;28;96792;-91
2024/03/12 05:51:34;;;;;;;56.90;19.13;;;;;;;11.07;64.34;101305.03;4962291;28;97978;-91
2024/03/12 05:54:00;;;;;;;53.05;19.45;;;;;;;11.05;64.43;101305.88;4932457;28;100450;-91
2024/03/12 05:56:26;;;;;;;57.00;18.17;;;;;;;11.04;64.22;101305.84;4945721;28;96967;-90
2024/03/12 05:58:52;;;;;;;66.07;19.33;;;;;;;11.04;64.13;101311.06;4933467;28;96940;-90
2024/03/12 06:01:18;;;;;;;54.08;17.35;;;;;;;11.03;64.08;101312.81;4953934;28;99533;-90
2024/03/12 06:03:44;;;;;;;55.65;19.70;;;;;;;11.02;64.29;101315.41;4955282;28;98058;-89
2024/03/12 06:06:10;;;;;;;64.07;19.25;;;;;;;11.02;64.47;101315.41;4935685;28;96846;-89
2024/03/12 06:08:35;;;;;;;49.10;19.38;;;;;;;11.01;64.46;101322.31;4944429;28;96805;-89
2024/03/12 06:11:01;;;;;;;56.55;18.25;;;;;;;11.02;64.15;101326.72;4933452;28;99891;-90
2024/03/12 06:13:27;;;;;;;58.97;19.23;;;;;;;11.02;64.35;101329.31;4956214;28;98630;-90
2024/03/12 06:15:53;;;;;;;55.28;17.48;;;;;;;11.03;64.20;101330.19;4966925;28;96891;-90
2024/03/12 06:18:19;;;;;;;57.53;18.20;;;;;;;11.01;64.25;101335.38;4937102;28;96872;-86
2024/03/12 06:20:49;;;;;;;59.97;18.23;;;;;;;11.02;64.14;101339.75;4929981;28;99242;-87
2024/03/12 06:23:18;;;;;;;51.90;18.10;;;;;;;11.00;64.29;101341.47;4940058;28;99121;-88
2024/03/12 06:25:44;;;;;;;56.45;17.63;;;;;;;11.00;64.20;101341.47;4927127;28;97073;-87
2024/03/12 06:28:11;;;;;;;52.10;18.08;;;;;;;11.00;64.10;101348.44;4932429;28;96913;-88
2024/03/12 06:30:43;;;;;;;57.00;17.45;;;;;;;10.97;64.31;101349.22;4934677;28;100010;-84
2024/03/12 06:33:09;;;;;;;49.67;17.83;;;;;;;10.98;64.47;101345.78;4950219;28;100226;-87
2024/03/12 06:35:38;;;;;;;56.03;18.98;;;;;;;10.98;64.35;101345.78;4951514;28;96982;-87
2024/03/12 06:38:04;;;;;;;;;;;;;;;10.96;64.12;101355.31;4957286;28;96921;-86
2024/03/12 06:40:30;;;;;;;50.08;15.90;;;;;;;11.01;64.31;101344.94;4948671;28;99676;-87
2024/03/12 06:42:59;;;;;;;61.42;17.98;;;;;;;11.00;64.22;101351.03;4931898;28;100161;-88
2024/03/12 06:45:26;;;;;;;45.38;16.88;;;;;;;11.02;64.47;101355.44;4950115;28;96887;-87
2024/03/12 06:47:55;;;;;;;57.65;17.08;;;;;;;11.04;64.36;101358.06;4927405;28;96946;-87
2024/03/12 06:50:27;;;;;;;54.55;18.73;;;;;;;11.03;64.49;101358.91;4947372;28;100327;-87
2024/03/12 06:52:53;;;;;;;78.55;18.23;;;;;;;11.05;64.40;101365.94;4949442;28;100266;-90
2024/03/12 06:55:23;;;;;;;49.45;17.38;;;;;;;11.08;64.36;101372.94;4931995;28;96796;-90
2024/03/12 06:57:59;;;;;;;54.25;18.02;;;;;;;11.08;64.21;101370.31;4952946;28;96994;-87
2024/03/12 07:00:37;;;;;;;;;;;;;;;11.09;64.36;101373.78;4966853;28;98011;-86
2024/03/12 07:03:09;;;;;;;42.97;15.25;;;;;;;11.12;64.40;101376.47;4934117;28;100492;-86
2024/03/12 07:05:36;;;;;;;50.60;18.20;;;;;;;11.10;64.04;101381.66;4948015;28;96835;-89
2024/03/12 07:08:05;;;;;;;47.55;16.08;;;;;;;11.08;64.32;101387.72;4940776;28;98592;-90
2024/03/12 07:10:32;;;;;;;49.63;19.13;;;;;;;11.08;64.40;101385.97;4951232;28;97699;-90
2024/03/12 07:13:00;;;;;;;54.58;16.55;;;;;;;11.09;64.03;101387.75;4933324;28;100209;-90
2024/03/12 07:15:27;;;;;;;50.05;17.42;;;;;;;11.11;64.26;101388.66;4928924;28;96947;-90
2024/03/12 07:17:53;;;;;;;48.28;17.90;;;;;;;11.13;64.21;101397.41;4967226;28;97055;-90
2024/03/12 07:20:21;;;;;;;44.38;15.13;;;;;;;11.13;64.36;101396.53;4954909;28;99888;-88
2024/03/12 07:22:48;;;;;;;47.30;16.10;;;;;;;11.12;64.18;101397.34;4957349;28;100234;-88
2024/03/12 07:25:15;;;;;;;51.30;15.50;;;;;;;11.13;64.39;101399.13;4954176;28;96880;-89
2024/03/12 07:27:41;;;;;;;41.83;16.48;;;;;;;11.13;64.24;101400.00;4955314;28;96814;-90
2024/03/12 07:30:13;;;;;;;45.03;16.42;;;;;;;11.14;64.31;101393.03;4947293;28;100865;-88
2024/03/12 07:32:39;;;;;;;39.83;14.82;;;;;;;11.15;64.12;101400.03;4941809;28;100343;-88
2024/03/12 07:35:05;;;;;;;40.75;14.90;;;;;;;11.15;64.22;101400.91;4933008;28;96885;-88
2024/03/12 07:37:38;;;;;;;46.55;14.63;;;;;;;11.17;64.12;101403.56;4926795;28;96831;-89
2024/03/12 07:40:06;;;;;;;41.35;14.52;;;;;;;11.17;64.00;101407.03;4947591;28;100442;-88
2024/03/12 07:42:31;;;;;;;45.92;16.88;;;;;;;11.16;64.08;101410.53;4932326;28;100254;-88
2024/03/12 07:44:58;;;;;;;41.05;15.23;;;;;;;11.17;64.26;101414.88;4949436;28;97137;-88
2024/03/12 07:47:24;;;;;;;51.38;16.05;;;;;;;11.21;64.38;101413.19;4934509;28;96986;-88
2024/03/12 07:49:51;;;;;;;42.47;16.25;;;;;;;11.22;64.20;101421.06;4931912;28;100276;-88
2024/03/12 07:52:19;;;;;;;42.95;16.08;;;;;;;11.22;64.22;101423.69;4922136;28;100324;-88
2024/03/12 07:54:45;;;;;;;43.22;15.52;;;;;;;11.23;64.14;101420.22;4932930;28;96801;-88
2024/03/12 07:57:11;;;;;;;50.35;15.45;;;;;;;11.23;64.37;101430.66;4930854;28;96918;-89
2024/03/12 07:59:37;;;;;;;44.03;16.58;;;;;;;11.25;64.29;101433.31;4932232;28;100278;-88
2024/03/12 08:02:12;;;;;;;43.45;16.30;;;;;;;11.25;64.17;101430.72;4933851;28;99745;-88
2024/03/12 08:04:44;;;;;;;43.72;14.75;;;;;;;11.27;64.22;101426.38;4933996;28;96835;-88
2024/03/12 08:07:14;;;;;;;40.72;17.02;;;;;;;11.26;64.13;101429.84;4949006;28;97224;-89
2024/03/12 08:09:43;;;;;;;49.97;14.75;;;;;;;11.26;64.09;101424.63;4932975;28;100006;-88
2024/03/12 08:12:13;;;;;;;45.08;14.50;;;;;;;11.26;64.13;101431.56;4931324;28;100399;-89
2024/03/12 08:14:39;;;;;;;42.05;15.38;;;;;;;11.26;64.14;101435.06;4952111;28;96846;-89
2024/03/12 08:17:07;;;;;;;42.65;15.13;;;;;;;11.25;64.25;101428.09;4932062;28;96914;-88
2024/03/12 08:19:33;;;;;;;39.08;14.60;;;;;;;11.26;64.27;101434.19;4944790;28;100323;-88
2024/03/12 08:21:59;;;;;;;42.15;14.65;;;;;;;11.29;64.26;101437.75;4936196;28;97794;-90
2024/03/12 08:24:26;;;;;;;41.92;15.02;;;;;;;11.30;64.22;101439.50;4937088;28;96966;-88
2024/03/12 08:26:52;;;;;;;41.13;15.90;;;;;;;11.32;64.49;101444.75;4968218;28;96912;-88
2024/03/12 08:29:18;;;;;;;43.88;15.25;;;;;;;11.34;64.14;101440.44;4949620;28;101506;-88
2024/03/12 08:31:44;;;;;;;41.95;15.00;;;;;;;11.34;64.12;101443.94;4953509;28;97457;-88
2024/03/12 08:34:14;;;;;;;38.75;16.25;;;;;;;11.35;64.26;101450.03;4949906;28;96927;-88
2024/03/12 08:36:39;;;;;;;37.65;15.77;;;;;;;11.37;64.34;101448.31;4938843;28;96848;-88
2024/03/12 08:39:05;;;;;;;41.45;13.98;;;;;;;11.38;64.22;101453.56;4952778;28;99059;-88
2024/03/12 08:41:32;;;;;;;36.05;15.18;;;;;;;11.40;64.15;101458.84;4931919;28;100210;-88
2024/03/12 08:43:58;;;;;;;35.28;13.18;;;;;;;11.40;64.38;101459.72;4957175;28;96935;-88
2024/03/12 08:46:24;;;;;;;40.90;14.32;;;;;;;11.41;64.19;101453.66;4939668;28;96790;-88
2024/03/12 08:48:50;;;;;;;41.35;14.23;;;;;;;11.45;64.40;101459.81;4933401;28;100555;-87
2024/03/12 08:51:15;;;;;;;37.65;15.57;;;;;;;11.49;64.18;101458.13;4939260;28;100560;-88
2024/03/12 08:53:41;;;;;;;37.58;13.95;;;;;;;11.50;64.17;101459.91;4953811;28;96949;-89
2024/03/12 08:56:06;;;;;;;41.15;14.25;;;;;;;11.49;64.10;101460.75;4940113;28;96918;-88
2024/03/12 08:58:33;;;;;;;38.20;14.23;;;;;;;11.51;64.15;101462.50;4948941;28;100990;-88
2024/03/12 09:00:58;;;;;;;39.97;14.77;;;;;;;11.53;63.99;101468.69;4939747;28;100700;-88
2024/03/12 09:03:24;;;;;;;38.45;15.43;;;;;;;11.57;63.98;101472.22;4931834;28;96827;-88
2024/03/12 09:05:50;;;;;;;35.63;13.82;;;;;;;11.58;64.13;101459.16;4936627;28;96923;-88
2024/03/12 09:08:17;;;;;;;39.53;14.32;;;;;;;11.60;64.16;101454.88;4935653;28;99304;-88
2024/03/12 09:10:47;;;;;;;36.63;13.65;;;;;;;11.62;63.81;101463.63;4952634;28;101333;-88
2024/03/12 09:13:19;;;;;;;37.88;16.05;;;;;;;11.61;63.75;101460.97;4954247;28;96819;-88
2024/03/12 09:15:50;;;;;;;34.72;15.13;;;;;;;11.60;63.60;101456.59;4927809;28;96910;-88
2024/03/12 09:18:20;;;;;;;34.75;15.52;;;;;;;11.56;63.74;101466.09;4944612;28;100082;-88
2024/03/12 09:20:50;;;;;;;37.40;15.40;;;;;;;11.56;63.67;101471.31;4945788;28;100015;-88
2024/03/12 09:23:18;;;;;;;34.53;15.07;;;;;;;11.57;63.69;101473.09;4956620;28;96842;-88
2024/03/12 09:25:45;;;;;;;37.25;14.93;;;;;;;11.58;63.70;101476.59;4914008;28;96909;-88
2024/03/12 09:28:11;;;;;;;36.85;14.80;;;;;;;11.60;63.61;101477.50;4959678;28;96849;-88
2024/03/12 09:30:38;;;;;;;40.13;16.02;;;;;;;11.59;63.58;101478.34;4964476;28;100763;-88
2024/03/12 09:33:04;;;;;;;38.42;13.98;;;;;;;11.59;63.80;101471.38;4943186;28;96810;-88
2024/03/12 09:35:30;;;;;;;32.10;13.18;;;;;;;11.62;63.60;101478.41;4938180;28;97165;-88
2024/03/12 09:37:55;;;;;;;35.97;15.55;;;;;;;11.62;63.60;101481.91;4952524;28;100419;-88
2024/03/12 09:40:21;;;;;;;38.97;15.15;;;;;;;11.63;63.52;101486.25;4934797;28;100110;-88
2024/03/12 09:42:49;;;;;;;35.90;16.25;;;;;;;11.64;63.52;101484.56;4959057;28;96780;-88
2024/03/12 09:45:15;;;;;;;39.47;15.52;;;;;;;11.61;63.47;101485.34;4935392;28;96907;-88
2024/03/12 09:47:42;;;;;;;36.25;14.95;;;;;;;11.63;63.58;101480.16;4947347;28;100555;-87
2024/03/12 09:50:11;;;;;;;38.72;18.52;;;;;;;11.65;63.67;101483.69;4938140;28;99991;-89
2024/03/12 09:52:41;;;;;;;41.33;18.08;;;;;;;11.67;63.54;101486.31;4956272;28;96937;-88
2024/03/12 09:55:14;;;;;;;41.33;17.02;;;;;;;11.69;63.58;101488.09;4966167;28;96768;-88
2024/03/12 09:57:46;;;;;;;41.05;18.48;;;;;;;11.72;63.66;101476.84;4968562;28;97894;-88
2024/03/12 10:00:19;;;;;;;36.13;14.85;;;;;;;11.74;63.76;101481.22;4934013;28;100448;-87
2024/03/12 10:02:49;;;;;;;34.45;15.43;;;;;;;11.78;63.67;101482.16;4951496;28;97051;-88
2024/03/12 10:05:21;;;;;;;37.20;15.98;;;;;;;11.82;63.74;101479.66;4948100;28;96923;-91
2024/03/12 10:08:08;;;;;;;37.70;15.27;;;;;;;11.88;63.95;101491.94;4955479;28;97898;-91
2024/03/12 10:10:38;;;;;;;34.33;15.18;;;;;;;11.98;64.07;101483.44;4927429;28;100111;-91
2024/03/12 10:13:04;;;;;;;37.30;16.60;;;;;;;12.07;63.80;101485.34;4944964;28;96784;-91
2024/03/12 10:15:30;;;;;;;35.25;14.68;;;;;;;12.13;63.42;101488.03;4950937;28;96939;-91
2024/03/12 10:18:00;;;;;;;35.70;15.20;;;;;;;12.18;63.38;101480.28;4935545;28;100673;-91
2024/03/12 10:20:30;;;;;;;33.38;13.70;;;;;;;12.20;62.80;101489.03;4946304;28;98995;-92
2024/03/12 10:23:15;;;;;;;31.55;14.20;;;;;;;12.21;63.03;101482.03;4929962;28;96755;-91
2024/03/12 10:25:48;;;;;;;35.03;15.48;;;;;;;12.22;62.74;101475.97;4924642;28;96794;-92
2024/03/12 10:28:22;;;;;;;34.42;16.27;;;;;;;12.23;63.01;101478.63;4948687;28;100617;-91
2024/03/12 10:30:48;;;;;;;31.02;13.55;;;;;;;12.27;62.80;101479.53;4933891;28;100082;-91
2024/03/12 10:33:20;;;;;;;32.67;15.75;;;;;;;12.30;62.90;101480.47;4948306;28;96792;-91
2024/03/12 10:35:47;;;;;;;32.67;16.08;;;;;;;12.33;62.83;101475.25;4966986;28;97829;-90
2024/03/12 10:38:24;;;;;;;32.60;15.70;;;;;;;12.37;62.78;101484.94;4923614;28;100413;-92
2024/03/12 10:40:49;;;;;;;33.72;15.07;;;;;;;12.40;62.49;101483.22;4942442;28;100442;-91
2024/03/12 10:43:20;;;;;;;30.40;14.02;;;;;;;12.38;62.52;101491.91;4952208;28;96723;-91
2024/03/12 10:45:49;;;;;;;33.33;15.55;;;;;;;12.40;62.25;101484.09;4952669;28;96969;-91
2024/03/12 10:48:15;;;;;;;33.65;14.52;;;;;;;12.41;62.12;101488.47;4938602;28;100278;-92
2024/03/12 10:50:43;;;;;;;34.83;16.15;;;;;;;12.43;61.97;101493.75;4933917;28;99104;-91
2024/03/12 10:53:11;;;;;;;32.60;15.88;;;;;;;12.43;62.19;101493.75;4934937;28;96812;-91
2024/03/12 10:55:38;;;;;;;34.35;14.43;;;;;;;12.48;62.34;101494.69;4946415;28;96913;-92
2024/03/12 10:58:08;;;;;;;36.50;16.67;;;;;;;12.51;61.94;101490.38;4959120;28;100841;-91
2024/03/12 11:00:39;;;;;;;38.35;17.23;;;;;;;12.56;62.18;101487.81;4957694;28;96776;-91
2024/03/12 11:03:08;;;;;;;38.00;15.63;;;;;;;12.62;62.87;101497.50;4952048;28;97094;-89
2024/03/12 11:05:35;;;;;;;38.28;17.77;;;;;;;12.69;62.20;101497.63;4943020;28;97011;-90
2024/03/12 11:08:01;;;;;;;37.80;16.17;;;;;;;12.76;62.16;101491.63;4943732;28;100136;-91
2024/03/12 11:10:28;;;;;;;34.95;15.65;;;;;;;12.82;61.56;101489.94;4939167;28;100268;-90
2024/03/12 11:12:55;;;;;;;39.42;18.15;;;;;;;12.85;61.50;101487.34;4944670;28;96883;-89
2024/03/12 11:15:23;;;;;;;38.38;15.40;;;;;;;12.91;61.43;101487.44;4950209;28;96968;-90
2024/03/12 11:17:50;;;;;;;37.53;18.05;;;;;;;12.98;61.50;101485.75;4955427;28;100770;-90